createdAt,value
2023-03-06T00:01:23.716Z,99572.22
2023-03-06T00:04:26.143Z,99560.00
2023-03-06T00:07:28.450Z,99558.34
2023-03-06T00:10:31.330Z,99553.91
2023-03-06T00:13:35.168Z,99547.22
2023-03-06T00:16:37.585Z,99540.72
2023-03-06T00:19:39.936Z,99556.75
2023-03-06T00:22:42.510Z,99555.94
2023-03-06T00:25:46.101Z,99559.41
2023-03-06T00:28:48.316Z,99555.75
2023-03-06T00:31:52.401Z,99550.66
2023-03-06T00:34:55.503Z,99551.88
2023-03-06T00:37:59.947Z,99538.06
2023-03-06T00:41:11.781Z,99529.53
2023-03-06T00:44:14.067Z,99532.38
2023-03-06T00:47:17.389Z,99533.38
2023-03-06T00:50:19.918Z,99530.78
2023-03-06T00:53:22.289Z,99533.56
2023-03-06T00:56:25.291Z,99528.13
2023-03-06T00:59:30.327Z,99519.97
2023-03-06T01:02:32.952Z,99528.91
2023-03-06T01:05:36.420Z,99513.69
2023-03-06T01:08:38.765Z,99519.56
2023-03-06T01:11:41.167Z,99526.47
2023-03-06T01:14:43.514Z,99524.06
2023-03-06T01:17:45.946Z,99506.97
2023-03-06T01:20:48.756Z,99505.97
2023-03-06T01:23:51.526Z,99508.00
2023-03-06T01:26:53.832Z,99508.00
2023-03-06T01:29:56.268Z,99509.00
2023-03-06T01:32:59.364Z,99508.00
2023-03-06T01:36:05.466Z,99491.56
2023-03-06T01:39:07.807Z,99493.78
2023-03-06T01:42:10.144Z,99493.16
2023-03-06T01:45:15.611Z,99496.31
2023-03-06T01:48:22.159Z,99486.78
2023-03-06T01:51:27.601Z,99500.66
2023-03-06T01:54:36.376Z,99502.69
2023-03-06T01:57:42.380Z,99470.97
2023-03-06T02:00:44.814Z,99497.16
2023-03-06T02:03:49.944Z,99494.28
2023-03-06T02:06:52.454Z,99488.38
2023-03-06T02:09:54.736Z,99482.50
2023-03-06T02:12:58.895Z,99501.63
2023-03-06T02:16:01.681Z,99481.34
2023-03-06T02:19:05.159Z,99483.66
2023-03-06T02:22:07.586Z,99485.53
2023-03-06T02:25:32.106Z,99497.16
2023-03-06T02:28:35.046Z,99494.28
2023-03-06T02:31:37.446Z,99481.06
2023-03-06T02:34:39.763Z,99488.38
2023-03-06T02:37:42.080Z,99477.94
2023-03-06T02:40:48.080Z,99484.19
2023-03-06T02:43:50.742Z,99482.72
2023-03-06T02:46:53.083Z,99486.75
2023-03-06T02:49:55.646Z,99479.44
2023-03-06T02:52:58.281Z,99474.66
2023-03-06T02:56:00.830Z,99490.75
2023-03-06T02:59:03.380Z,99493.59
2023-03-06T03:02:05.969Z,99482.78
2023-03-06T03:05:09.820Z,99490.72
2023-03-06T03:08:16.769Z,99477.72
2023-03-06T03:11:19.179Z,99485.19
2023-03-06T03:14:24.652Z,99484.56
2023-03-06T03:17:27.211Z,99472.81
2023-03-06T03:20:29.576Z,99478.41
2023-03-06T03:23:31.911Z,99478.19
2023-03-06T03:26:34.234Z,99479.44
2023-03-06T03:29:45.298Z,99471.72
2023-03-06T03:32:47.826Z,99471.97
2023-03-06T03:35:57.835Z,99464.59
2023-03-06T03:39:00.783Z,99465.16
2023-03-06T03:42:03.605Z,99471.94
2023-03-06T03:45:06.634Z,99462.97
2023-03-06T03:48:09.076Z,99466.66
2023-03-06T03:51:13.272Z,99474.16
2023-03-06T03:54:20.412Z,99468.47
2023-03-06T03:57:24.892Z,99465.97
2023-03-06T04:00:29.315Z,99473.19
2023-03-06T04:03:42.137Z,99462.06
2023-03-06T04:06:45.805Z,99466.69
2023-03-06T04:09:48.397Z,99447.66
2023-03-06T04:12:51.197Z,99464.78
2023-03-06T04:15:55.023Z,99457.66
2023-03-06T04:18:58.861Z,99470.56
2023-03-06T04:22:02.411Z,99464.06
2023-03-06T04:25:07.252Z,99466.25
2023-03-06T04:28:11.667Z,99466.16
2023-03-06T04:31:14.941Z,99469.56
2023-03-06T04:34:18.554Z,99464.50
2023-03-06T04:37:24.644Z,99472.78
2023-03-06T04:40:29.766Z,99465.47
2023-03-06T04:43:32.151Z,99466.56
2023-03-06T04:46:35.232Z,99466.03
2023-03-06T04:49:37.642Z,99469.44
2023-03-06T04:52:42.743Z,99455.47
2023-03-06T04:55:45.081Z,99460.34
2023-03-06T04:58:47.697Z,99451.97
2023-03-06T05:01:50.325Z,99462.47
2023-03-06T05:04:52.595Z,99468.13
2023-03-06T05:07:55.077Z,99453.94
2023-03-06T05:10:59.757Z,99459.66
2023-03-06T05:14:02.131Z,99466.53
2023-03-06T05:17:04.482Z,99461.75
2023-03-06T05:20:09.766Z,99464.75
2023-03-06T05:23:12.656Z,99465.59
2023-03-06T05:26:15.755Z,99460.19
2023-03-06T05:29:18.016Z,99455.34
2023-03-06T05:32:20.874Z,99454.75
2023-03-06T05:35:23.852Z,99453.13
2023-03-06T05:38:26.265Z,99452.09
2023-03-06T05:41:28.603Z,99453.59
2023-03-06T05:44:33.191Z,99462.41
2023-03-06T05:47:36.169Z,99463.06
2023-03-06T05:50:38.857Z,99462.66
2023-03-06T05:53:41.310Z,99462.03
2023-03-06T05:56:44.312Z,99454.31
2023-03-06T05:59:47.294Z,99456.06
2023-03-06T06:02:49.644Z,99461.91
2023-03-06T06:05:52.038Z,99465.13
2023-03-06T06:08:54.378Z,99459.84
2023-03-06T06:12:01.186Z,99471.19
2023-03-06T06:15:04.356Z,99477.34
2023-03-06T06:18:06.720Z,99465.53
2023-03-06T06:21:11.360Z,99459.16
2023-03-06T06:33:26.780Z,99454.88
2023-03-06T06:36:31.664Z,99486.13
2023-03-06T06:39:35.350Z,99485.41
2023-03-06T06:42:40.147Z,99475.09
2023-03-06T06:45:44.581Z,99488.44
2023-03-06T06:48:54.950Z,99484.00
2023-03-06T06:52:09.888Z,99489.34
2023-03-06T06:55:14.494Z,99483.34
2023-03-06T06:58:17.856Z,99485.84
2023-03-06T07:01:21.323Z,99486.22
2023-03-06T07:04:27.315Z,99483.13
2023-03-06T07:07:30.955Z,99472.16
2023-03-06T07:10:33.419Z,99485.88
2023-03-06T07:13:35.789Z,99484.72
2023-03-06T07:17:19.368Z,99496.91
2023-03-06T07:20:21.863Z,99503.66
2023-03-06T07:23:26.542Z,99497.06
2023-03-06T07:26:29.020Z,99484.19
2023-03-06T07:29:33.002Z,99498.09
2023-03-06T07:33:39.514Z,99508.81
2023-03-06T07:36:43.242Z,99508.38
2023-03-06T07:39:46.154Z,99508.59
2023-03-06T07:42:48.450Z,99503.81
2023-03-06T07:46:19.777Z,99510.47
2023-03-06T07:49:22.111Z,99499.97
2023-03-06T07:52:24.651Z,99496.56
2023-03-06T07:55:26.960Z,99486.22
2023-03-06T07:58:29.276Z,99520.84
2023-03-06T08:01:31.874Z,99508.75
2023-03-06T08:04:35.304Z,99524.72
2023-03-06T08:07:37.986Z,99513.50
2023-03-06T08:10:40.610Z,99509.75
2023-03-06T08:13:43.401Z,99527.88
2023-03-06T08:16:46.424Z,99529.44
2023-03-06T08:19:48.828Z,99521.88
2023-03-06T08:22:52.785Z,99518.19
2023-03-06T08:25:57.236Z,99528.06
2023-03-06T08:29:01.083Z,99507.88
2023-03-06T08:32:05.018Z,99498.66
2023-03-06T08:35:11.141Z,99511.91
2023-03-06T08:38:16.865Z,99508.59
2023-03-06T08:41:21.080Z,99515.75
2023-03-06T08:44:24.350Z,99517.22
2023-03-06T08:47:26.879Z,99514.28
2023-03-06T08:50:29.220Z,99512.34
2023-03-06T08:53:42.778Z,99508.50
2023-03-06T08:56:46.205Z,99526.38
2023-03-06T08:59:49.629Z,99505.56
2023-03-06T09:02:52.044Z,99509.16
2023-03-06T09:05:54.377Z,99511.66
2023-03-06T09:08:56.887Z,99503.59
2023-03-06T09:11:59.284Z,99504.03
2023-03-06T09:15:04.457Z,99489.13
2023-03-06T09:18:06.925Z,99482.97
2023-03-06T09:21:09.532Z,99486.38
2023-03-06T09:24:11.885Z,99484.59
2023-03-06T09:27:14.190Z,99475.50
2023-03-06T09:30:17.510Z,99487.88
2023-03-06T09:33:20.581Z,99484.53
2023-03-06T09:36:23.847Z,99464.88
2023-03-06T09:39:26.600Z,99462.66
2023-03-06T09:42:29.283Z,99450.75
2023-03-06T09:45:33.661Z,99461.00
2023-03-06T09:48:55.047Z,99465.03
2023-03-06T09:52:01.141Z,99473.31
2023-03-06T09:55:16.473Z,99466.63
2023-03-06T09:58:25.303Z,99460.97
2023-03-06T10:06:56.951Z,99434.84
2023-03-06T10:10:05.407Z,99446.41
2023-03-06T10:13:47.363Z,99448.13
2023-03-06T10:16:49.976Z,99456.72
2023-03-06T10:20:15.404Z,99446.34
2023-03-06T10:23:43.911Z,99446.38
2023-03-06T10:26:55.475Z,99437.97
2023-03-06T10:30:04.363Z,99453.41
2023-03-06T10:33:45.577Z,99445.53
2023-03-06T10:36:48.481Z,99446.72
2023-03-06T10:39:56.228Z,99435.53
2023-03-06T10:43:10.855Z,99423.88
2023-03-06T10:51:25.368Z,99404.81
2023-03-06T10:54:29.976Z,99409.69
2023-03-06T10:57:33.520Z,99409.56
2023-03-06T11:01:08.691Z,99395.13
2023-03-06T11:04:16.940Z,99378.72
2023-03-06T11:07:31.839Z,99376.88
2023-03-06T11:10:35.568Z,99359.34
2023-03-06T11:13:40.067Z,99374.81
2023-03-06T11:16:53.087Z,99363.25
2023-03-06T11:20:14.975Z,99360.47
2023-03-06T11:23:23.473Z,99345.91
2023-03-06T11:26:37.020Z,99325.59
2023-03-06T11:29:48.531Z,99330.81
2023-03-06T11:33:27.346Z,99282.31
2023-03-06T11:36:41.019Z,99313.38
2023-03-06T11:40:10.132Z,99265.88
2023-03-06T11:43:44.399Z,99308.47
2023-03-06T11:47:07.404Z,99249.03
2023-03-06T11:50:58.019Z,99248.09
2023-03-06T11:54:03.783Z,99276.31
2023-03-06T11:57:18.157Z,99228.94
2023-03-06T12:00:56.923Z,99225.84
2023-03-06T12:04:20.110Z,99250.88
2023-03-06T12:07:31.381Z,99246.19
2023-03-06T12:11:12.619Z,99241.63
2023-03-06T12:14:21.157Z,99231.69
2023-03-06T12:17:31.075Z,99244.22
2023-03-06T12:20:45.688Z,99235.69
2023-03-06T12:23:55.756Z,99229.47
2023-03-06T12:27:19.357Z,99229.09
2023-03-06T12:30:50.779Z,99214.13
2023-03-06T12:33:59.065Z,99220.34
2023-03-06T12:37:04.256Z,99214.78
2023-03-06T12:40:12.759Z,99220.84
2023-03-06T12:43:21.107Z,99221.63
2023-03-06T12:46:28.216Z,99212.41
2023-03-06T12:49:34.746Z,99207.53
2023-03-06T12:56:39.778Z,99190.59
2023-03-06T12:59:48.023Z,99214.03
2023-03-06T13:03:16.383Z,99203.81
2023-03-06T13:07:03.211Z,99204.72
2023-03-06T13:10:27.796Z,99203.19
2023-03-06T13:14:34.234Z,99198.63
2023-03-06T13:28:48.782Z,99175.78
2023-03-06T13:32:14.021Z,99175.72
2023-03-06T13:35:56.243Z,99112.06
2023-03-06T13:39:10.054Z,99155.47
2023-03-06T13:42:28.885Z,99135.84
2023-03-06T13:45:44.453Z,99143.34
2023-03-06T13:48:46.782Z,99139.22
2023-03-06T13:52:23.530Z,99142.13
2023-03-06T13:55:59.795Z,99137.78
2023-03-06T13:59:32.957Z,99134.47
2023-03-06T14:02:58.591Z,99139.09
2023-03-06T14:06:00.923Z,99130.03
2023-03-06T14:09:12.144Z,99103.41
2023-03-06T14:12:25.045Z,99097.91
2023-03-06T14:15:42.433Z,99120.59
2023-03-06T14:18:56.937Z,99111.41
2023-03-06T14:22:00.345Z,99119.09
2023-03-06T14:25:43.642Z,99107.38
2023-03-06T14:28:57.170Z,99122.63
2023-03-06T14:32:00.914Z,99091.13
2023-03-06T14:35:03.735Z,99113.84
2023-03-06T14:38:08.102Z,99097.09
2023-03-06T14:41:12.391Z,99113.38
2023-03-06T14:44:26.629Z,99115.47
2023-03-06T14:47:36.318Z,99114.09
2023-03-06T14:50:40.976Z,99099.03
2023-03-06T14:53:48.168Z,99105.50
2023-03-06T14:56:56.961Z,99107.09
2023-03-06T15:00:01.721Z,99112.66
2023-03-06T15:03:07.680Z,99111.44
2023-03-06T15:06:17.944Z,99109.66
2023-03-06T15:09:24.733Z,99102.50
2023-03-06T15:12:27.308Z,99110.06
2023-03-06T15:15:31.589Z,99103.78
2023-03-06T15:18:56.678Z,99100.63
2023-03-06T15:22:02.587Z,99096.16
2023-03-06T15:25:20.194Z,99100.56
2023-03-06T15:28:40.386Z,99092.03
2023-03-06T15:32:35.895Z,99100.66
2023-03-06T15:39:01.961Z,99084.84
2023-03-06T15:42:25.046Z,99098.97
2023-03-06T15:45:31.651Z,99077.28
2023-03-06T15:48:35.473Z,99090.66
2023-03-06T15:51:39.827Z,99082.03
2023-03-06T15:54:42.164Z,99076.38
2023-03-06T15:57:52.594Z,99091.75
2023-03-06T16:00:54.942Z,99089.25
2023-03-06T16:03:58.191Z,99085.97
2023-03-06T16:07:00.644Z,99108.91
2023-03-06T16:10:06.563Z,99104.06
2023-03-06T16:13:17.446Z,99111.22
2023-03-06T16:16:22.510Z,99111.56
2023-03-06T16:19:27.332Z,99122.72
2023-03-06T16:22:30.146Z,99105.97
2023-03-06T16:25:34.569Z,99118.47
2023-03-06T16:28:43.418Z,99106.75
2023-03-06T16:31:46.071Z,99055.81
2023-03-06T16:34:48.329Z,99107.41
2023-03-06T16:37:50.795Z,99120.00
2023-03-06T16:40:53.092Z,99112.56
2023-03-06T16:43:55.594Z,99112.78
2023-03-06T16:47:03.165Z,99120.88
2023-03-06T16:50:05.924Z,99128.59
2023-03-06T16:53:09.296Z,99132.63
2023-03-06T16:56:13.688Z,99136.78
2023-03-06T16:59:15.996Z,99142.66
2023-03-06T17:02:18.336Z,99146.78
2023-03-06T17:05:21.177Z,99142.41
2023-03-06T17:08:24.632Z,99140.78
2023-03-06T17:11:27.572Z,99133.88
2023-03-06T17:14:30.605Z,99147.78
2023-03-06T17:17:33.099Z,99144.78
2023-03-06T17:20:35.673Z,99134.78
2023-03-06T17:23:38.449Z,99149.63
2023-03-06T17:26:40.764Z,99141.88
2023-03-06T17:29:45.071Z,99132.06
2023-03-06T17:32:47.401Z,99146.59
2023-03-06T17:35:49.761Z,99130.16
2023-03-06T17:38:55.185Z,99143.28
2023-03-06T17:41:57.534Z,99126.16
2023-03-06T17:45:00.095Z,99135.38
2023-03-06T17:48:02.592Z,99137.75
2023-03-06T17:51:05.562Z,99115.91
2023-03-06T17:54:07.880Z,99110.84
2023-03-06T17:57:10.203Z,99123.34
2023-03-06T18:00:13.475Z,99133.31
2023-03-06T18:03:17.791Z,99130.63
2023-03-06T18:06:21.075Z,99141.63
2023-03-06T18:09:23.798Z,99131.06
2023-03-06T18:12:26.131Z,99143.78
2023-03-06T18:15:28.450Z,99139.88
2023-03-06T18:18:31.121Z,99141.03
2023-03-06T18:21:33.498Z,99128.09
2023-03-06T18:24:36.801Z,99140.78
2023-03-06T18:27:39.251Z,99137.38
2023-03-06T18:30:42.394Z,99140.78
2023-03-06T18:33:45.385Z,99120.03
2023-03-06T18:36:48.382Z,99141.03
2023-03-06T18:39:50.686Z,99127.09
2023-03-06T18:42:53.818Z,99125.41
2023-03-06T18:45:57.160Z,99129.59
2023-03-06T18:48:59.555Z,99129.69
2023-03-06T18:52:01.821Z,99125.50
2023-03-06T18:55:04.421Z,99127.03
2023-03-06T18:58:07.202Z,99140.19
2023-03-06T19:01:09.645Z,99149.03
2023-03-06T19:04:12.231Z,99141.69
2023-03-06T19:07:14.527Z,99143.59
2023-03-06T19:10:19.269Z,99140.94
2023-03-06T19:13:21.646Z,99139.19
2023-03-06T19:16:28.824Z,99139.81
2023-03-06T19:19:31.097Z,99130.34
2023-03-06T19:22:37.235Z,99156.13
2023-03-06T19:25:39.627Z,99148.25
2023-03-06T19:28:43.180Z,99138.53
2023-03-06T19:31:47.852Z,99135.19
2023-03-06T19:34:50.308Z,99135.91
2023-03-06T19:37:53.083Z,99132.81
2023-03-06T19:40:55.452Z,99126.91
2023-03-06T19:44:02.314Z,99143.59
2023-03-06T19:47:04.698Z,99126.47
2023-03-06T19:50:07.618Z,99133.84
2023-03-06T19:53:11.172Z,99119.66
2023-03-06T19:56:16.643Z,99147.59
2023-03-06T19:59:19.422Z,99141.72
2023-03-06T20:02:26.634Z,99143.03
2023-03-06T20:05:28.988Z,99133.47
2023-03-06T20:08:31.213Z,99124.22
2023-03-06T20:11:33.865Z,99110.75
2023-03-06T20:14:36.291Z,99119.38
2023-03-06T20:17:40.611Z,99128.38
2023-03-06T20:20:43.372Z,99110.19
2023-03-06T20:23:45.707Z,99124.09
2023-03-06T20:26:49.492Z,99123.59
2023-03-06T20:29:52.032Z,99121.16
2023-03-06T20:32:55.928Z,99131.91
2023-03-06T20:35:58.195Z,99122.63
2023-03-06T20:39:01.360Z,99091.34
2023-03-06T20:42:04.414Z,99124.53
2023-03-06T20:45:07.214Z,99116.81
2023-03-06T20:48:09.537Z,99130.28
2023-03-06T20:51:17.901Z,99138.84
2023-03-06T20:54:20.180Z,99124.53
2023-03-06T20:57:22.469Z,99142.38
2023-03-06T21:00:24.821Z,99140.78
2023-03-06T21:03:27.336Z,99125.63
2023-03-06T21:06:29.701Z,99138.56
2023-03-06T21:09:34.558Z,99140.59
2023-03-06T21:12:36.926Z,99141.28
2023-03-06T21:15:40.361Z,99127.69
2023-03-06T21:18:43.324Z,99141.06
2023-03-06T21:21:45.619Z,99125.34
2023-03-06T21:24:47.894Z,99135.25
2023-03-06T21:27:50.264Z,99137.91
2023-03-06T21:30:52.566Z,99148.47
2023-03-06T21:33:55.295Z,99135.06
2023-03-06T21:36:57.580Z,99131.03
2023-03-06T21:40:00.466Z,99141.28
2023-03-06T21:43:03.494Z,99124.25
2023-03-06T21:46:06.142Z,99129.00
2023-03-06T21:49:08.545Z,99143.69
2023-03-06T21:52:10.887Z,99128.50
2023-03-06T21:55:13.202Z,99142.16
2023-03-06T21:58:15.550Z,99123.41
2023-03-06T22:01:21.826Z,99138.56
2023-03-06T22:04:24.229Z,99139.00
2023-03-06T22:07:27.304Z,99134.97
2023-03-06T22:10:29.585Z,99132.47
2023-03-06T22:13:31.871Z,99135.19
2023-03-06T22:16:34.307Z,99142.34
2023-03-06T22:19:36.715Z,99128.78
2023-03-06T22:22:39.002Z,99130.75
2023-03-06T22:25:41.323Z,99114.94
2023-03-06T22:28:43.848Z,99133.31
2023-03-06T22:31:46.380Z,99131.19
2023-03-06T22:34:49.944Z,99138.94
2023-03-06T22:37:52.303Z,99120.69
2023-03-06T22:40:58.169Z,99138.53
2023-03-06T22:44:01.398Z,99113.91
2023-03-06T22:47:03.711Z,99125.00
2023-03-06T22:50:06.982Z,99134.78
2023-03-06T22:53:09.207Z,99134.34
2023-03-06T22:56:13.733Z,99134.63
2023-03-06T22:59:16.035Z,99135.53
2023-03-06T23:02:18.839Z,99136.78
2023-03-06T23:05:21.632Z,99142.25
2023-03-06T23:08:24.163Z,99150.19
2023-03-06T23:11:28.093Z,99160.31
2023-03-06T23:14:51.177Z,99137.16
2023-03-06T23:18:12.391Z,99133.25
2023-03-06T23:21:34.591Z,99134.03
2023-03-06T23:24:55.363Z,99132.75
2023-03-06T23:27:57.675Z,99123.47
2023-03-06T23:30:59.936Z,99133.81
2023-03-06T23:34:02.925Z,99141.88
2023-03-06T23:37:05.211Z,99123.69
2023-03-06T23:40:09.376Z,99122.06
2023-03-06T23:43:11.639Z,99120.69
2023-03-06T23:46:14.610Z,99132.38
2023-03-06T23:49:16.933Z,99134.19
2023-03-06T23:52:19.192Z,99137.28
2023-03-06T23:55:21.806Z,99126.78
2023-03-06T23:58:24.059Z,99128.84
